createdAt,value
2022-09-10T00:00:55.458Z,100147.09
2022-09-10T00:03:58.263Z,100148.94
2022-09-10T00:07:00.826Z,100145.09
2022-09-10T00:10:03.398Z,100143.69
2022-09-10T00:13:07.171Z,100150.03
2022-09-10T00:16:12.767Z,100160.09
2022-09-10T00:19:16.152Z,100162.59
2022-09-10T00:22:18.699Z,100155.06
2022-09-10T00:25:21.170Z,100148.91
2022-09-10T00:28:25.949Z,100141.56
2022-09-10T00:31:30.149Z,100137.50
2022-09-10T00:34:33.004Z,100141.19
2022-09-10T00:37:35.410Z,100149.22
2022-09-10T00:40:38.795Z,100146.56
2022-09-10T00:44:02.516Z,100149.88
2022-09-10T00:47:06.691Z,100141.09
2022-09-10T00:50:30.647Z,100142.13
2022-09-10T00:53:33.642Z,100135.78
2022-09-10T00:56:36.973Z,100142.13
2022-09-10T00:59:42.013Z,100130.88
2022-09-10T01:02:44.594Z,100127.41
2022-09-10T01:05:47.607Z,100125.59
2022-09-10T01:08:50.093Z,100124.34
2022-09-10T01:12:22.236Z,100124.19
2022-09-10T01:15:30.727Z,100126.25
2022-09-10T01:18:51.696Z,100116.84
2022-09-10T01:22:20.368Z,100124.69
2022-09-10T01:25:50.041Z,100126.31
2022-09-10T01:29:34.656Z,100131.69
2022-09-10T01:32:55.279Z,100126.41
2022-09-10T01:36:05.354Z,100132.75
2022-09-10T01:39:07.966Z,100128.87
2022-09-10T01:42:10.523Z,100126.00
2022-09-10T01:45:15.109Z,100119.69
2022-09-10T01:48:20.562Z,100115.78
2022-09-10T01:51:41.667Z,100116.62
2022-09-10T01:55:10.754Z,100117.22
2022-09-10T01:58:28.621Z,100120.31
2022-09-10T02:01:43.617Z,100117.22
2022-09-10T02:04:48.039Z,100113.97
2022-09-10T02:07:53.766Z,100125.47
2022-09-10T02:10:59.378Z,100120.75
2022-09-10T02:14:02.018Z,100123.84
2022-09-10T02:17:04.536Z,100119.94
2022-09-10T02:20:11.640Z,100113.97
2022-09-10T02:23:15.070Z,100104.34
2022-09-10T02:26:17.557Z,100093.50
2022-09-10T02:29:19.931Z,100096.75
2022-09-10T02:32:22.456Z,100100.66
2022-09-10T02:35:24.941Z,100096.59
2022-09-10T02:38:29.285Z,100091.87
2022-09-10T02:41:34.314Z,100094.75
2022-09-10T02:44:37.621Z,100094.75
2022-09-10T02:47:40.287Z,100098.44
2022-09-10T02:50:45.558Z,100094.75
2022-09-10T02:53:47.960Z,100098.00
2022-09-10T02:56:50.527Z,100092.69
2022-09-10T02:59:56.949Z,100090.03
2022-09-10T03:03:02.958Z,100086.34
2022-09-10T03:06:06.078Z,100086.34
2022-09-10T03:09:08.536Z,100087.16
2022-09-10T03:12:10.987Z,100085.31
2022-09-10T03:15:13.641Z,100089.00
2022-09-10T03:18:16.147Z,100083.66
2022-09-10T03:21:21.481Z,100083.66
2022-09-10T03:24:25.387Z,100073.84
2022-09-10T03:27:27.808Z,100070.16
2022-09-10T03:30:30.250Z,100068.31
2022-09-10T03:33:32.963Z,100067.72
2022-09-10T03:36:35.588Z,100067.75
2022-09-10T03:39:38.061Z,100073.06
2022-09-10T03:42:40.690Z,100073.28
2022-09-10T03:45:44.601Z,100077.78
2022-09-10T03:48:47.125Z,100076.19
2022-09-10T03:51:49.548Z,100081.34
2022-09-10T03:54:52.206Z,100091.16
2022-09-10T03:57:54.634Z,100090.34
2022-09-10T04:00:57.126Z,100088.13
2022-09-10T04:03:59.570Z,100095.50
2022-09-10T04:07:02.058Z,100109.59
2022-09-10T04:10:04.910Z,100101.63
2022-09-10T04:13:07.433Z,100096.75
2022-09-10T04:16:10.059Z,100104.50
2022-09-10T04:19:12.974Z,100107.16
2022-09-10T04:22:15.390Z,100102.88
2022-09-10T04:25:19.042Z,100111.47
2022-09-10T04:28:21.415Z,100114.31
2022-09-10T04:31:23.882Z,100117.81
2022-09-10T04:34:26.358Z,100113.28
2022-09-10T04:37:29.504Z,100115.13
2022-09-10T04:40:32.149Z,100115.34
2022-09-10T04:43:34.877Z,100115.13
2022-09-10T04:46:37.333Z,100118.00
2022-09-10T04:49:39.768Z,100118.81
2022-09-10T04:52:43.425Z,100115.97
2022-09-10T04:55:47.237Z,100121.87
2022-09-10T04:58:49.634Z,100116.56
2022-09-10T05:01:52.392Z,100117.97
2022-09-10T05:04:54.940Z,100119.41
2022-09-10T05:07:57.497Z,100121.63
2022-09-10T05:11:03.009Z,100108.72
2022-09-10T05:14:05.499Z,100108.69
2022-09-10T05:17:08.151Z,100108.47
2022-09-10T05:20:10.983Z,100112.13
2022-09-10T05:23:13.525Z,100109.62
2022-09-10T05:26:15.973Z,100116.81
2022-09-10T05:29:18.510Z,100119.69
2022-09-10T05:32:20.876Z,100113.97
2022-09-10T05:35:23.417Z,100123.38
2022-09-10T05:38:26.687Z,100123.38
2022-09-10T05:41:31.248Z,100124.00
2022-09-10T05:44:34.073Z,100130.16
2022-09-10T05:47:37.726Z,100128.31
2022-09-10T05:50:40.434Z,100127.69
2022-09-10T05:53:42.915Z,100120.75
2022-09-10T05:56:45.399Z,100123.41
2022-09-10T05:59:47.757Z,100128.34
2022-09-10T06:02:51.240Z,100135.72
2022-09-10T06:05:55.915Z,100134.09
2022-09-10T06:08:58.376Z,100140.66
2022-09-10T06:12:01.040Z,100138.56
2022-09-10T06:15:03.815Z,100138.50
2022-09-10T06:18:06.743Z,100144.59
2022-09-10T06:21:13.137Z,100143.56
2022-09-10T06:24:15.604Z,100149.03
2022-09-10T06:27:18.151Z,100146.97
2022-09-10T06:30:20.938Z,100150.22
2022-09-10T06:33:23.448Z,100147.12
2022-09-10T06:36:28.683Z,100137.62
2022-09-10T06:39:31.146Z,100151.72
2022-09-10T06:42:33.588Z,100156.63
2022-09-10T06:45:40.164Z,100150.38
2022-09-10T06:48:47.571Z,100166.03
2022-09-10T06:51:51.039Z,100155.97
2022-09-10T06:54:53.548Z,100155.87
2022-09-10T06:57:55.964Z,100154.16
2022-09-10T07:00:58.579Z,100157.25
2022-09-10T07:04:01.977Z,100156.53
2022-09-10T07:07:04.462Z,100169.31
2022-09-10T07:10:07.739Z,100167.97
2022-09-10T07:13:10.905Z,100160.38
2022-09-10T07:16:18.496Z,100167.19
2022-09-10T07:19:21.114Z,100156.81
2022-09-10T07:22:23.669Z,100163.72
2022-09-10T07:25:26.776Z,100165.00
2022-09-10T07:28:29.219Z,100179.44
2022-09-10T07:31:38.405Z,100180.69
2022-09-10T07:34:41.189Z,100171.44
2022-09-10T07:37:45.307Z,100167.13
2022-09-10T07:40:48.740Z,100164.94
2022-09-10T07:43:53.973Z,100164.62
2022-09-10T07:46:56.581Z,100164.75
2022-09-10T07:50:00.370Z,100169.41
2022-09-10T07:53:03.104Z,100167.53
2022-09-10T07:56:07.505Z,100169.75
2022-09-10T07:59:13.496Z,100177.84
2022-09-10T08:02:16.022Z,100179.91
2022-09-10T08:12:53.659Z,100176.88
2022-09-10T08:16:05.395Z,100178.72
2022-09-10T08:19:15.051Z,100181.94
2022-09-10T08:22:18.413Z,100184.75
2022-09-10T08:25:25.136Z,100181.94
2022-09-10T08:28:33.560Z,100184.06
2022-09-10T08:31:37.207Z,100168.19
2022-09-10T08:34:40.772Z,100181.62
2022-09-10T08:37:43.825Z,100167.88
2022-09-10T08:40:53.778Z,100187.19
2022-09-10T08:44:12.662Z,100175.94
2022-09-10T08:47:21.395Z,100176.50
2022-09-10T08:50:36.455Z,100195.81
2022-09-10T08:54:07.520Z,100188.19
2022-09-10T08:57:53.057Z,100189.66
2022-09-10T09:01:03.051Z,100191.53
2022-09-10T09:08:48.424Z,100184.56
2022-09-10T09:12:19.083Z,100174.16
2022-09-10T09:15:31.867Z,100167.09
2022-09-10T09:19:03.142Z,100165.97
2022-09-10T09:22:28.332Z,100177.69
2022-09-10T09:25:50.495Z,100186.50
2022-09-10T09:29:08.170Z,100161.94
2022-09-10T09:32:19.529Z,100155.09
2022-09-10T09:35:31.597Z,100152.16
2022-09-10T09:38:37.609Z,100143.34
2022-09-10T09:42:05.980Z,100149.50
2022-09-10T09:45:34.964Z,100144.75
2022-09-10T09:48:42.205Z,100137.62
2022-09-10T09:51:57.102Z,100154.88
2022-09-10T09:55:14.369Z,100156.06
2022-09-10T09:58:21.224Z,100154.72
2022-09-10T10:01:25.253Z,100156.81
2022-09-10T10:04:33.949Z,100135.87
2022-09-10T10:07:42.127Z,100152.63
2022-09-10T10:10:51.832Z,100152.09
2022-09-10T10:14:11.961Z,100157.75
2022-09-10T10:17:32.996Z,100162.34
2022-09-10T10:20:41.359Z,100148.87
2022-09-10T10:23:44.536Z,100152.16
2022-09-10T10:27:05.361Z,100151.88
2022-09-10T10:30:17.018Z,100134.06
2022-09-10T10:33:37.763Z,100147.00
2022-09-10T10:37:13.604Z,100131.03
2022-09-10T10:40:30.630Z,100154.19
2022-09-10T10:43:58.551Z,100131.78
2022-09-10T10:47:19.252Z,100149.88
2022-09-10T10:50:31.082Z,100162.66
2022-09-10T10:54:15.425Z,100149.88
2022-09-10T10:57:43.380Z,100160.94
2022-09-10T11:01:01.574Z,100164.78
2022-09-10T11:04:13.133Z,100149.44
2022-09-10T11:07:34.935Z,100149.75
2022-09-10T11:10:41.301Z,100151.16
2022-09-10T11:13:51.536Z,100143.50
2022-09-10T11:17:01.226Z,100137.53
2022-09-10T11:20:30.117Z,100133.25
2022-09-10T11:23:47.885Z,100135.16
2022-09-10T11:26:59.940Z,100141.63
2022-09-10T11:30:19.390Z,100131.25
2022-09-10T11:33:46.963Z,100118.63
2022-09-10T11:36:54.931Z,100115.50
2022-09-10T11:39:59.877Z,100123.75
2022-09-10T11:43:14.666Z,100129.34
2022-09-10T11:46:24.404Z,100130.25
2022-09-10T11:49:35.544Z,100126.03
2022-09-10T11:52:38.540Z,100124.53
2022-09-10T11:55:49.392Z,100121.13
2022-09-10T11:59:23.134Z,100116.41
2022-09-10T12:02:38.185Z,100118.72
2022-09-10T12:06:15.307Z,100126.97
2022-09-10T12:09:28.242Z,100115.25
2022-09-10T12:12:37.817Z,100113.44
2022-09-10T12:15:40.417Z,100125.09
2022-09-10T12:18:45.630Z,100117.81
2022-09-10T12:21:51.210Z,100114.25
2022-09-10T12:25:06.333Z,100119.19
2022-09-10T12:28:43.698Z,100113.00
2022-09-10T12:32:21.742Z,100111.37
2022-09-10T12:35:33.068Z,100100.94
2022-09-10T12:38:44.884Z,100093.28
2022-09-10T12:41:47.911Z,100093.88
2022-09-10T12:44:50.385Z,100093.59
2022-09-10T12:47:52.924Z,100094.13
2022-09-10T12:51:00.707Z,100080.69
2022-09-10T12:54:24.650Z,100071.84
2022-09-10T12:58:02.765Z,100079.78
2022-09-10T13:01:20.719Z,100078.88
2022-09-10T13:04:28.804Z,100072.84
2022-09-10T13:07:41.836Z,100072.34
2022-09-10T13:11:03.578Z,100073.34
2022-09-10T13:14:06.332Z,100063.59
2022-09-10T13:17:57.526Z,100059.03
2022-09-10T13:21:00.450Z,100048.97
2022-09-10T13:24:03.245Z,100058.38
2022-09-10T13:27:17.868Z,100052.31
2022-09-10T13:30:27.624Z,100060.44
2022-09-10T13:33:33.523Z,100041.34
2022-09-10T13:36:53.891Z,100044.41
2022-09-10T13:40:02.678Z,100045.72
2022-09-10T13:43:21.027Z,100040.81
2022-09-10T13:46:44.545Z,100028.38
2022-09-10T13:49:53.870Z,100034.28
2022-09-10T13:53:00.128Z,100021.09
2022-09-10T13:56:13.562Z,100026.31
2022-09-10T13:59:24.122Z,100018.25
2022-09-10T14:02:47.736Z,100024.19
2022-09-10T14:05:53.403Z,100019.06
2022-09-10T14:09:03.912Z,100021.59
2022-09-10T14:12:08.253Z,100008.97
2022-09-10T14:15:17.405Z,100012.94
2022-09-10T14:18:20.845Z,100000.09
2022-09-10T14:21:27.296Z,100015.16
2022-09-10T14:24:56.747Z,100001.03
2022-09-10T14:28:24.946Z,99999.63
2022-09-10T14:31:38.920Z,100008.50
2022-09-10T14:34:41.397Z,99993.75
2022-09-10T14:37:43.919Z,100016.03
2022-09-10T14:40:47.840Z,100021.41
2022-09-10T14:43:55.427Z,100033.84
2022-09-10T14:47:20.610Z,100032.09
2022-09-10T14:50:28.020Z,100028.38
2022-09-10T14:53:30.569Z,100042.44
2022-09-10T14:56:39.406Z,100051.00
2022-09-10T14:59:59.154Z,100056.72
2022-09-10T15:03:02.612Z,100043.09
2022-09-10T15:06:10.597Z,100057.75
2022-09-10T15:09:15.151Z,100068.59
2022-09-10T15:12:26.673Z,100065.28
2022-09-10T15:15:30.969Z,100061.94
2022-09-10T15:18:33.593Z,100060.69
2022-09-10T15:21:36.139Z,100058.81
2022-09-10T15:24:58.769Z,100067.34
2022-09-10T15:38:24.075Z,100075.47
2022-09-10T15:41:26.921Z,100076.88
2022-09-10T15:44:29.545Z,100080.38
2022-09-10T15:47:36.381Z,100082.16
2022-09-10T15:50:38.882Z,100086.03
2022-09-10T15:53:50.108Z,100087.28
2022-09-10T15:56:56.319Z,100081.19
2022-09-10T16:00:09.468Z,100093.56
2022-09-10T16:03:12.110Z,100080.09
2022-09-10T16:06:15.912Z,100089.00
2022-09-10T16:09:18.768Z,100082.22
2022-09-10T16:12:21.605Z,100085.75
2022-09-10T16:15:25.766Z,100097.78
2022-09-10T16:18:32.449Z,100109.16
2022-09-10T16:21:40.661Z,100103.34
2022-09-10T16:24:46.413Z,100101.87
2022-09-10T16:27:48.989Z,100108.91
2022-09-10T16:34:19.021Z,100105.66
2022-09-10T16:37:32.359Z,100104.63
2022-09-10T16:40:34.936Z,100114.66
2022-09-10T16:43:37.737Z,100123.69
2022-09-10T16:46:40.788Z,100121.50
2022-09-10T16:49:43.814Z,100132.00
2022-09-10T16:52:48.998Z,100127.25
2022-09-10T16:55:51.517Z,100128.56
2022-09-10T16:58:54.265Z,100128.22
2022-09-10T17:02:00.596Z,100124.78
2022-09-10T17:05:03.729Z,100118.63
2022-09-10T17:08:06.488Z,100125.31
2022-09-10T17:11:08.945Z,100104.19
2022-09-10T17:14:11.888Z,100117.84
2022-09-10T17:17:14.580Z,100113.44
2022-09-10T17:20:23.422Z,100121.72
2022-09-10T17:23:35.245Z,100132.00
2022-09-10T17:26:47.394Z,100133.66
2022-09-10T17:29:49.893Z,100127.41
2022-09-10T17:32:52.530Z,100133.94
2022-09-10T17:36:02.520Z,100138.81
2022-09-10T17:39:05.053Z,100134.41
2022-09-10T17:42:07.590Z,100137.44
2022-09-10T17:45:10.721Z,100147.78
2022-09-10T17:48:13.236Z,100152.53
2022-09-10T17:51:20.687Z,100151.69
2022-09-10T17:54:24.008Z,100160.16
2022-09-10T17:57:35.738Z,100175.94
2022-09-10T18:00:40.875Z,100160.13
2022-09-10T18:03:43.342Z,100172.16
2022-09-10T18:06:50.197Z,100175.28
2022-09-10T18:09:57.703Z,100176.37
2022-09-10T18:13:00.623Z,100171.06
2022-09-10T18:16:09.206Z,100172.09
2022-09-10T18:19:19.518Z,100169.22
2022-09-10T18:22:41.110Z,100185.19
2022-09-10T18:25:47.853Z,100179.41
2022-09-10T18:29:11.709Z,100189.41
2022-09-10T18:32:15.064Z,100175.59
2022-09-10T18:35:18.285Z,100198.38
2022-09-10T18:38:23.181Z,100198.06
2022-09-10T18:41:31.318Z,100196.69
2022-09-10T18:44:39.801Z,100201.75
2022-09-10T18:47:45.361Z,100176.06
2022-09-10T18:50:54.191Z,100192.09
2022-09-10T18:54:01.459Z,100194.41
2022-09-10T18:57:07.743Z,100173.09
2022-09-10T19:00:11.227Z,100186.41
2022-09-10T19:03:13.781Z,100189.06
2022-09-10T19:06:29.077Z,100187.66
2022-09-10T19:09:31.871Z,100186.88
2022-09-10T19:12:34.628Z,100186.28
2022-09-10T19:15:41.339Z,100187.72
2022-09-10T19:18:44.144Z,100180.31
2022-09-10T19:25:06.710Z,100197.16
2022-09-10T19:28:20.245Z,100205.81
2022-09-10T19:31:31.466Z,100198.94
2022-09-10T19:34:34.067Z,100210.56
2022-09-10T19:37:36.523Z,100196.22
2022-09-10T19:40:40.532Z,100208.00
2022-09-10T19:43:43.166Z,100209.19
2022-09-10T19:46:46.893Z,100208.75
2022-09-10T19:49:51.982Z,100202.94
2022-09-10T19:53:00.192Z,100204.56
2022-09-10T19:56:19.735Z,100202.66
2022-09-10T19:59:23.108Z,100208.06
2022-09-10T20:02:25.638Z,100205.38
2022-09-10T20:05:29.030Z,100211.56
2022-09-10T20:08:34.061Z,100214.66
2022-09-10T20:11:36.775Z,100211.75
2022-09-10T20:14:39.315Z,100215.12
2022-09-10T20:17:41.747Z,100217.63
2022-09-10T20:20:44.812Z,100212.28
2022-09-10T20:23:52.248Z,100215.25
2022-09-10T20:27:00.362Z,100214.44
2022-09-10T20:30:03.789Z,100225.34
2022-09-10T20:40:20.177Z,100221.94
2022-09-10T20:43:29.280Z,100225.84
2022-09-10T20:46:32.449Z,100202.97
2022-09-10T20:53:30.714Z,100215.91
2022-09-10T20:56:33.499Z,100213.50
2022-09-10T20:59:40.930Z,100214.69
2022-09-10T21:02:46.976Z,100197.56
2022-09-10T21:05:58.475Z,100209.53
2022-09-10T21:09:02.251Z,100210.19
2022-09-10T21:12:15.193Z,100214.97
2022-09-10T21:15:21.334Z,100209.28
2022-09-10T21:18:30.412Z,100207.06
2022-09-10T21:21:34.717Z,100214.28
2022-09-10T21:24:40.139Z,100217.84
2022-09-10T21:27:44.242Z,100221.41
2022-09-10T21:30:46.719Z,100220.19
2022-09-10T21:41:44.031Z,100221.25
2022-09-10T21:44:46.471Z,100220.91
2022-09-10T21:47:53.284Z,100221.31
2022-09-10T21:51:12.799Z,100208.03
2022-09-10T22:01:45.741Z,100220.13
2022-09-10T22:05:03.132Z,100221.75
2022-09-10T22:08:07.259Z,100218.50
2022-09-10T22:11:36.017Z,100221.38
2022-09-10T22:14:38.627Z,100210.75
2022-09-10T22:17:43.282Z,100229.16
2022-09-10T22:20:45.747Z,100235.47
2022-09-10T22:23:54.023Z,100231.19
2022-09-10T22:27:01.776Z,100213.59
2022-09-10T22:30:07.698Z,100214.22
2022-09-10T22:33:10.094Z,100214.41
2022-09-10T22:36:26.524Z,100233.41
2022-09-10T22:39:37.306Z,100240.09
2022-09-10T22:42:39.893Z,100227.81
2022-09-10T22:45:42.279Z,100237.22
2022-09-10T22:48:45.681Z,100237.41
2022-09-10T22:51:58.778Z,100238.41
2022-09-10T22:55:09.900Z,100223.84
2022-09-10T22:58:12.991Z,100244.06
2022-09-10T23:01:16.504Z,100240.16
2022-09-10T23:04:25.949Z,100248.06
2022-09-10T23:07:33.609Z,100247.03
2022-09-10T23:10:42.031Z,100219.22
2022-09-10T23:13:45.888Z,100236.56
2022-09-10T23:20:12.450Z,100246.72
2022-09-10T23:23:14.899Z,100249.88
2022-09-10T23:26:19.893Z,100245.09
2022-09-10T23:29:27.455Z,100243.81
2022-09-10T23:32:30.046Z,100225.97
2022-09-10T23:35:42.908Z,100249.03
2022-09-10T23:38:45.575Z,100239.75
2022-09-10T23:42:13.437Z,100238.50
2022-09-10T23:45:15.869Z,100224.91
2022-09-10T23:56:12.449Z,100234.13
2022-09-10T23:59:15.488Z,100226.19
